Time;durP1;ratioP1;P1;durP2;ratioP2;P2;SDS_P1;SDS_P2;PMS_P1;PMS_P2;Temp;Humidity;BMP_temperature;BMP_pressure;BME280_temperature;BME280_humidity;BME280_pressure;Samples;Min_cycle;Max_cycle;Signal;HPM_P1;HPM_P2
2023/06/20 00:00:37;;;;;;;10.32;6.72;;;;;;;;;;5001762;28;20122;-57
2023/06/20 00:03:03;;;;;;;9.45;6.47;;;;;;;;;;5013659;28;20439;-55
2023/06/20 00:05:28;;;;;;;11.02;7.15;;;;;;;;;;5013426;28;20157;-55
2023/06/20 00:07:54;;;;;;;10.57;7.10;;;;;;;;;;4993999;28;20030;-55
2023/06/20 00:10:20;;;;;;;9.85;7.00;;;;;;;;;;5001681;28;20038;-54
2023/06/20 00:12:45;;;;;;;9.43;7.13;;;;;;;;;;5009061;28;20030;-55
2023/06/20 00:15:11;;;;;;;12.05;7.70;;;;;;;;;;5010643;28;20038;-51
2023/06/20 00:17:38;;;;;;;10.15;7.05;;;;;;;;;;5008908;28;20378;-52
2023/06/20 00:20:05;;;;;;;11.18;7.40;;;;;;;;;;4993700;28;20040;-53
2023/06/20 00:22:34;;;;;;;10.20;7.75;;;;;;;;;;4994461;28;20092;-55
2023/06/20 00:25:00;;;;;;;8.95;7.43;;;;;;;;;;5015080;28;20101;-55
2023/06/20 00:27:26;;;;;;;10.50;7.47;;;;;;;;;;5014116;28;20030;-52
2023/06/20 00:29:51;;;;;;;12.55;8.02;;;;;;;;;;5006858;28;20418;-53
2023/06/20 00:32:17;;;;;;;12.45;7.35;;;;;;;;;;4997965;28;20080;-51
2023/06/20 00:34:42;;;;;;;9.50;7.38;;;;;;;;;;5002763;28;20818;-56
2023/06/20 00:37:07;;;;;;;10.32;7.50;;;;;;;;;;5012407;28;20030;-52
2023/06/20 00:39:33;;;;;;;13.43;7.90;;;;;;;;;;5013980;28;20022;-55
2023/06/20 00:41:58;;;;;;;11.32;7.88;;;;;;;;;;4995963;28;20516;-52
2023/06/20 00:44:23;;;;;;;10.40;7.95;;;;;;;;;;4993577;28;20038;-57
2023/06/20 00:46:49;;;;;;;10.90;7.50;;;;;;;;;;5011338;28;20041;-50
2023/06/20 00:49:14;;;;;;;9.65;7.50;;;;;;;;;;5004632;28;20061;-49
2023/06/20 00:51:40;;;;;;;11.20;7.60;;;;;;;;;;5009489;28;20034;-49
2023/06/20 00:54:05;;;;;;;11.20;7.78;;;;;;;;;;4996893;28;20116;-51
2023/06/20 00:56:32;;;;;;;10.07;7.60;;;;;;;;;;4992733;28;20034;-55
2023/06/20 00:58:57;;;;;;;12.23;8.07;;;;;;;;;;4991390;28;20476;-51
2023/06/20 01:01:24;;;;;;;11.10;7.78;;;;;;;;;;5023914;28;20030;-54
2023/06/20 01:03:51;;;;;;;11.63;7.47;;;;;;;;;;5000684;28;20038;-51
2023/06/20 01:06:42;;;;;;;12.73;8.30;;;;;;;;;;4993744;28;20042;-55
2023/06/20 01:09:29;;;;;;;11.85;7.95;;;;;;;;;;5005817;28;20041;-54
2023/06/20 01:12:13;;;;;;;13.68;8.48;;;;;;;;;;4992988;28;20057;-51
2023/06/20 01:14:52;;;;;;;9.68;7.68;;;;;;;;;;4991729;28;20038;-50
2023/06/20 01:17:22;;;;;;;10.40;7.95;;;;;;;;;;4993644;28;20526;-54
2023/06/20 01:19:53;;;;;;;12.93;8.00;;;;;;;;;;4992674;28;20033;-54
2023/06/20 01:22:37;;;;;;;9.80;7.90;;;;;;;;;;5017375;28;20049;-53
2023/06/20 01:25:06;;;;;;;12.52;8.15;;;;;;;;;;5032063;28;20604;-53
2023/06/20 01:27:40;;;;;;;10.27;7.68;;;;;;;;;;5017349;28;20034;-52
2023/06/20 01:30:15;;;;;;;10.85;8.30;;;;;;;;;;4992422;28;20360;-51
2023/06/20 01:32:46;;;;;;;14.93;8.60;;;;;;;;;;4993594;28;20062;-57
2023/06/20 01:35:16;;;;;;;11.63;8.27;;;;;;;;;;5032272;28;20041;-56
2023/06/20 01:37:43;;;;;;;10.73;8.50;;;;;;;;;;5030493;28;20049;-55
2023/06/20 01:40:11;;;;;;;11.07;8.32;;;;;;;;;;4992244;28;20047;-55
2023/06/20 01:42:38;;;;;;;11.02;8.35;;;;;;;;;;4992759;28;20069;-55
2023/06/20 01:45:06;;;;;;;11.85;8.35;;;;;;;;;;4997200;28;20030;-53
2023/06/20 01:47:36;;;;;;;10.75;8.55;;;;;;;;;;5009615;28;20057;-56
2023/06/20 01:50:05;;;;;;;10.27;8.20;;;;;;;;;;4992124;28;20408;-55
2023/06/20 01:52:32;;;;;;;12.57;8.52;;;;;;;;;;4992902;28;20046;-55
2023/06/20 01:54:58;;;;;;;10.90;8.73;;;;;;;;;;5011923;28;20025;-53
2023/06/20 01:57:25;;;;;;;11.40;8.50;;;;;;;;;;4992015;28;20030;-51
2023/06/20 01:59:50;;;;;;;10.05;8.63;;;;;;;;;;4989930;28;20110;-54
2023/06/20 02:02:17;;;;;;;12.30;9.13;;;;;;;;;;4991531;28;20062;-54
2023/06/20 02:04:45;;;;;;;10.45;8.52;;;;;;;;;;4992439;28;20045;-55
2023/06/20 02:07:12;;;;;;;10.68;8.30;;;;;;;;;;4990484;28;20118;-54
2023/06/20 02:09:39;;;;;;;10.85;9.00;;;;;;;;;;4992505;28;20064;-52
2023/06/20 02:12:07;;;;;;;14.02;8.98;;;;;;;;;;4998316;28;20044;-54
2023/06/20 02:14:32;;;;;;;9.85;8.40;;;;;;;;;;5010980;28;20034;-52
2023/06/20 02:17:00;;;;;;;11.82;8.75;;;;;;;;;;5006446;28;20089;-56
2023/06/20 02:19:26;;;;;;;10.95;8.77;;;;;;;;;;5012016;28;20030;-49
2023/06/20 02:21:55;;;;;;;12.45;8.90;;;;;;;;;;5018808;28;20040;-53
2023/06/20 02:24:22;;;;;;;11.07;8.73;;;;;;;;;;5031804;28;20041;-52
2023/06/20 02:26:48;;;;;;;10.95;8.23;;;;;;;;;;5031127;28;20437;-56
2023/06/20 02:29:15;;;;;;;11.55;9.25;;;;;;;;;;5023008;28;20037;-54
2023/06/20 02:31:45;;;;;;;11.18;9.68;;;;;;;;;;5003411;28;20064;-54
2023/06/20 02:34:14;;;;;;;14.52;9.30;;;;;;;;;;4992243;28;20042;-52
2023/06/20 02:36:42;;;;;;;11.45;9.00;;;;;;;;;;4992267;28;20038;-52
2023/06/20 02:39:08;;;;;;;12.05;9.25;;;;;;;;;;4991322;28;20057;-56
2023/06/20 02:41:34;;;;;;;11.60;9.23;;;;;;;;;;4990487;28;20369;-53
2023/06/20 02:43:59;;;;;;;13.13;9.25;;;;;;;;;;5003629;28;20094;-54
2023/06/20 02:46:36;;;;;;;11.57;9.55;;;;;;;;;;5006532;28;20391;-55
2023/06/20 02:49:07;;;;;;;13.00;9.80;;;;;;;;;;4990211;28;20034;-53
2023/06/20 02:51:53;;;;;;;11.68;9.65;;;;;;;;;;5009797;28;20038;-53
2023/06/20 02:54:36;;;;;;;15.35;9.93;;;;;;;;;;4992196;28;20030;-55
2023/06/20 02:57:06;;;;;;;13.00;9.82;;;;;;;;;;4991336;28;20088;-55
2023/06/20 02:59:34;;;;;;;11.75;9.55;;;;;;;;;;4992068;28;20026;-56
2023/06/20 03:02:02;;;;;;;10.90;9.20;;;;;;;;;;5000929;28;20464;-53
2023/06/20 03:04:32;;;;;;;13.40;10.00;;;;;;;;;;5010456;28;20463;-56
2023/06/20 03:06:59;;;;;;;11.63;9.43;;;;;;;;;;4991872;28;20045;-53
2023/06/20 03:09:26;;;;;;;11.02;9.45;;;;;;;;;;4991548;28;20034;-54
2023/06/20 03:11:52;;;;;;;12.98;10.18;;;;;;;;;;4993020;28;20088;-56
2023/06/20 03:14:18;;;;;;;12.82;9.73;;;;;;;;;;5006145;28;20057;-51
2023/06/20 03:16:43;;;;;;;12.25;9.48;;;;;;;;;;5016180;28;20029;-55
2023/06/20 03:19:12;;;;;;;11.70;9.18;;;;;;;;;;5034218;28;20288;-54
2023/06/20 03:21:38;;;;;;;11.95;9.02;;;;;;;;;;5001326;28;20026;-56
2023/06/20 03:24:04;;;;;;;12.73;10.00;;;;;;;;;;5034257;28;20040;-55
2023/06/20 03:26:30;;;;;;;12.15;9.95;;;;;;;;;;5035083;28;20041;-55
2023/06/20 03:28:55;;;;;;;18.38;10.50;;;;;;;;;;5027298;28;20029;-54
2023/06/20 03:31:21;;;;;;;13.35;10.40;;;;;;;;;;5034621;28;20034;-52
2023/06/20 03:33:46;;;;;;;13.35;10.82;;;;;;;;;;4997688;28;20039;-53
2023/06/20 03:36:12;;;;;;;13.32;10.70;;;;;;;;;;5009442;28;20033;-57
2023/06/20 03:38:40;;;;;;;14.90;11.07;;;;;;;;;;4995780;28;20038;-55
2023/06/20 03:41:05;;;;;;;12.57;10.32;;;;;;;;;;5010616;28;20731;-55
2023/06/20 03:43:30;;;;;;;17.65;10.57;;;;;;;;;;5033455;28;20428;-54
2023/06/20 03:45:56;;;;;;;10.85;9.55;;;;;;;;;;5033798;28;20044;-55
2023/06/20 03:48:21;;;;;;;13.60;10.07;;;;;;;;;;5013357;28;20036;-54
2023/06/20 03:50:47;;;;;;;12.88;10.30;;;;;;;;;;4999604;28;20084;-51
2023/06/20 03:53:13;;;;;;;11.45;10.25;;;;;;;;;;4997469;28;20116;-51
2023/06/20 03:55:39;;;;;;;11.90;9.75;;;;;;;;;;4995687;28;20030;-56
2023/06/20 03:58:04;;;;;;;12.25;9.98;;;;;;;;;;4993958;28;20034;-50
2023/06/20 04:00:29;;;;;;;13.50;9.35;;;;;;;;;;4994820;28;20042;-51
2023/06/20 04:02:55;;;;;;;12.55;10.48;;;;;;;;;;4992031;28;20042;-57
2023/06/20 04:05:20;;;;;;;12.45;10.02;;;;;;;;;;4996154;28;20034;-53
2023/06/20 04:07:45;;;;;;;13.65;9.70;;;;;;;;;;5014702;28;20052;-55
2023/06/20 04:10:12;;;;;;;13.02;10.07;;;;;;;;;;5013640;28;20129;-56
2023/06/20 04:12:41;;;;;;;15.15;9.80;;;;;;;;;;5013817;28;20068;-55
2023/06/20 04:15:08;;;;;;;11.52;10.02;;;;;;;;;;4997159;28;20038;-55
2023/06/20 04:17:33;;;;;;;12.27;10.10;;;;;;;;;;4994774;28;20077;-55
2023/06/20 04:19:59;;;;;;;12.00;10.50;;;;;;;;;;4993633;28;20038;-55
2023/06/20 04:22:26;;;;;;;13.25;10.43;;;;;;;;;;4994232;28;20061;-55
2023/06/20 04:24:53;;;;;;;13.43;10.07;;;;;;;;;;5003435;28;20065;-53
2023/06/20 04:27:18;;;;;;;14.32;11.38;;;;;;;;;;5013313;28;20038;-53
2023/06/20 04:29:44;;;;;;;15.10;11.00;;;;;;;;;;5013035;28;20466;-49
2023/06/20 04:32:09;;;;;;;13.27;10.73;;;;;;;;;;5001864;28;20091;-53
2023/06/20 04:34:34;;;;;;;13.43;10.45;;;;;;;;;;4996175;28;20395;-52
2023/06/20 04:37:01;;;;;;;12.77;9.52;;;;;;;;;;4993589;28;20113;-53
2023/06/20 04:39:27;;;;;;;12.13;9.95;;;;;;;;;;4997166;28;20116;-55
2023/06/20 04:41:52;;;;;;;13.45;10.50;;;;;;;;;;5009699;28;20606;-55
2023/06/20 04:44:19;;;;;;;14.45;10.27;;;;;;;;;;5033005;28;20044;-50
2023/06/20 04:46:45;;;;;;;13.10;10.75;;;;;;;;;;4996989;28;20105;-55
2023/06/20 04:49:10;;;;;;;17.67;10.48;;;;;;;;;;5007898;28;20376;-56
2023/06/20 04:51:36;;;;;;;12.77;10.02;;;;;;;;;;5007659;28;20485;-54
2023/06/20 04:54:01;;;;;;;12.60;10.27;;;;;;;;;;4993254;28;20471;-55
2023/06/20 04:56:26;;;;;;;13.40;10.88;;;;;;;;;;4997353;28;20360;-55
2023/06/20 04:58:52;;;;;;;13.18;10.48;;;;;;;;;;5013630;28;20029;-54
2023/06/20 05:01:18;;;;;;;13.13;9.77;;;;;;;;;;5012121;28;20030;-55
2023/06/20 05:03:44;;;;;;;11.60;9.80;;;;;;;;;;5012711;28;20117;-55
2023/06/20 05:06:16;;;;;;;13.57;10.13;;;;;;;;;;5012109;28;20387;-56
2023/06/20 05:08:43;;;;;;;13.27;10.30;;;;;;;;;;5013513;28;20056;-52
2023/06/20 05:11:08;;;;;;;12.80;10.45;;;;;;;;;;5012757;28;20076;-53
2023/06/20 05:13:33;;;;;;;15.35;11.18;;;;;;;;;;5015111;28;20022;-56
2023/06/20 05:15:59;;;;;;;13.65;10.60;;;;;;;;;;5012613;28;20348;-57
2023/06/20 05:18:24;;;;;;;12.00;10.00;;;;;;;;;;5012240;28;20041;-53
2023/06/20 05:20:50;;;;;;;13.82;10.75;;;;;;;;;;4998683;28;20105;-56
2023/06/20 05:23:16;;;;;;;13.18;10.52;;;;;;;;;;5013954;28;20041;-50
2023/06/20 05:25:42;;;;;;;14.85;10.30;;;;;;;;;;5024061;28;20030;-57
2023/06/20 05:28:07;;;;;;;16.10;11.20;;;;;;;;;;5018499;28;20383;-56
2023/06/20 05:30:32;;;;;;;13.18;10.27;;;;;;;;;;5012073;28;20698;-54
2023/06/20 05:32:58;;;;;;;13.88;10.38;;;;;;;;;;5008436;28;20037;-56
2023/06/20 05:35:23;;;;;;;14.75;10.80;;;;;;;;;;5019110;28;20033;-54
2023/06/20 05:37:49;;;;;;;12.93;10.45;;;;;;;;;;5029212;28;20387;-56
2023/06/20 05:40:15;;;;;;;14.13;10.93;;;;;;;;;;5020919;28;20146;-53
2023/06/20 05:42:41;;;;;;;12.25;10.25;;;;;;;;;;5008577;28;20113;-51
2023/06/20 05:45:07;;;;;;;13.77;10.20;;;;;;;;;;4999719;28;20192;-55
2023/06/20 05:47:33;;;;;;;12.82;10.70;;;;;;;;;;5003962;28;20489;-56
2023/06/20 05:49:59;;;;;;;14.57;9.98;;;;;;;;;;5023932;28;20105;-55
2023/06/20 05:52:25;;;;;;;11.65;10.20;;;;;;;;;;5012144;28;20030;-54
2023/06/20 05:54:53;;;;;;;12.13;9.93;;;;;;;;;;4999310;28;20030;-54
2023/06/20 05:57:19;;;;;;;12.00;10.20;;;;;;;;;;5008316;28;20270;-55
2023/06/20 05:59:44;;;;;;;13.85;10.48;;;;;;;;;;5002915;28;20525;-52
2023/06/20 06:02:10;;;;;;;14.20;11.77;;;;;;;;;;5010969;28;20446;-53
2023/06/20 06:04:35;;;;;;;12.45;10.13;;;;;;;;;;5014029;28;20033;-54
2023/06/20 06:07:01;;;;;;;14.05;10.60;;;;;;;;;;5011010;28;20075;-57
2023/06/20 06:09:26;;;;;;;13.43;10.93;;;;;;;;;;5002978;28;20041;-56
2023/06/20 06:11:52;;;;;;;13.63;10.10;;;;;;;;;;5011121;28;20040;-53
2023/06/20 06:14:18;;;;;;;17.02;10.10;;;;;;;;;;5008591;28;20773;-54
2023/06/20 06:16:44;;;;;;;16.73;10.10;;;;;;;;;;5010960;28;20037;-53
2023/06/20 06:19:10;;;;;;;16.83;9.73;;;;;;;;;;5011030;28;20034;-53
2023/06/20 06:21:35;;;;;;;12.93;8.98;;;;;;;;;;5008258;28;20076;-54
2023/06/20 06:24:01;;;;;;;11.30;8.98;;;;;;;;;;5028194;28;20113;-57
2023/06/20 06:26:26;;;;;;;10.13;8.70;;;;;;;;;;5014051;28;20064;-53
2023/06/20 06:28:53;;;;;;;10.82;8.57;;;;;;;;;;5003367;28;20392;-53
2023/06/20 06:31:25;;;;;;;11.73;8.40;;;;;;;;;;5009671;28;20141;-56
2023/06/20 06:33:52;;;;;;;10.77;7.55;;;;;;;;;;5011214;28;20040;-55
2023/06/20 06:36:18;;;;;;;10.98;7.65;;;;;;;;;;5010708;28;20077;-58
2023/06/20 06:38:48;;;;;;;12.20;8.20;;;;;;;;;;5011550;28;20131;-54
2023/06/20 06:41:16;;;;;;;14.18;7.50;;;;;;;;;;5010456;28;20049;-56
2023/06/20 06:43:41;;;;;;;9.35;7.40;;;;;;;;;;5006112;28;20061;-57
2023/06/20 06:46:07;;;;;;;10.15;7.30;;;;;;;;;;5008334;28;20062;-54
2023/06/20 06:48:32;;;;;;;11.63;6.70;;;;;;;;;;4998444;28;20034;-57
2023/06/20 06:50:58;;;;;;;11.68;7.20;;;;;;;;;;5014617;28;20049;-55
2023/06/20 06:53:24;;;;;;;9.38;6.47;;;;;;;;;;4993953;28;20153;-54
2023/06/20 06:55:50;;;;;;;10.63;6.05;;;;;;;;;;5000451;28;20121;-56
2023/06/20 06:58:15;;;;;;;10.77;5.97;;;;;;;;;;5029450;28;20167;-52
2023/06/20 07:00:41;;;;;;;9.52;6.22;;;;;;;;;;5014312;28;20026;-55
2023/06/20 07:03:08;;;;;;;10.38;6.40;;;;;;;;;;4994044;28;20042;-52
2023/06/20 07:05:34;;;;;;;10.88;6.53;;;;;;;;;;5006977;28;20037;-55
2023/06/20 07:07:59;;;;;;;8.63;5.82;;;;;;;;;;5031043;28;20371;-56
2023/06/20 07:10:24;;;;;;;9.88;6.30;;;;;;;;;;5010320;28;20038;-56
2023/06/20 07:12:50;;;;;;;13.98;6.03;;;;;;;;;;5017861;28;20091;-57
2023/06/20 07:15:15;;;;;;;8.13;5.85;;;;;;;;;;5023575;28;20030;-54
2023/06/20 07:17:41;;;;;;;10.55;6.28;;;;;;;;;;5010496;28;20030;-55
2023/06/20 07:20:08;;;;;;;17.15;7.20;;;;;;;;;;5004775;28;20104;-58
2023/06/20 07:22:33;;;;;;;14.05;6.70;;;;;;;;;;5010912;28;20038;-54
2023/06/20 07:24:59;;;;;;;9.82;7.30;;;;;;;;;;5017569;28;20185;-55
2023/06/20 07:27:24;;;;;;;11.02;6.00;;;;;;;;;;5008306;28;20037;-56
2023/06/20 07:29:49;;;;;;;10.48;6.38;;;;;;;;;;5011151;28;20034;-53
2023/06/20 07:32:15;;;;;;;9.20;6.35;;;;;;;;;;4999372;28;20038;-53
2023/06/20 07:34:40;;;;;;;8.82;6.10;;;;;;;;;;5010035;28;20030;-53
2023/06/20 07:37:06;;;;;;;8.35;6.13;;;;;;;;;;5002626;28;20038;-57
2023/06/20 07:39:31;;;;;;;8.63;6.40;;;;;;;;;;4991256;28;20034;-55
2023/06/20 07:41:56;;;;;;;9.68;6.85;;;;;;;;;;5002191;28;21042;-58
2023/06/20 07:44:22;;;;;;;9.55;6.75;;;;;;;;;;5001485;28;20031;-57
2023/06/20 07:46:47;;;;;;;8.95;6.63;;;;;;;;;;4999958;28;20479;-57
2023/06/20 07:49:13;;;;;;;10.48;6.95;;;;;;;;;;4990370;28;20076;-55
2023/06/20 07:51:40;;;;;;;12.20;7.05;;;;;;;;;;5004647;28;20038;-54
2023/06/20 07:54:06;;;;;;;9.93;6.97;;;;;;;;;;4991059;28;20034;-57
2023/06/20 07:56:31;;;;;;;8.70;7.60;;;;;;;;;;5003355;28;20047;-55
2023/06/20 07:58:57;;;;;;;10.23;6.82;;;;;;;;;;5011508;28;20121;-55
2023/06/20 08:01:22;;;;;;;12.23;6.43;;;;;;;;;;5010504;28;20749;-57
2023/06/20 08:03:48;;;;;;;9.13;6.45;;;;;;;;;;5007699;28;20027;-56
2023/06/20 08:06:14;;;;;;;8.65;5.90;;;;;;;;;;5003393;28;20463;-51
2023/06/20 08:08:39;;;;;;;9.27;6.72;;;;;;;;;;5013711;28;20064;-53
2023/06/20 08:11:05;;;;;;;7.55;6.10;;;;;;;;;;5005560;28;20022;-59
2023/06/20 08:13:31;;;;;;;8.73;6.05;;;;;;;;;;5013851;28;20032;-55
2023/06/20 08:15:57;;;;;;;10.00;6.63;;;;;;;;;;5027193;28;20072;-55
2023/06/20 08:18:22;;;;;;;12.82;6.03;;;;;;;;;;5012980;28;20560;-54
2023/06/20 08:20:48;;;;;;;10.52;5.63;;;;;;;;;;5011193;28;20034;-56
2023/06/20 08:23:24;;;;;;;9.20;5.75;;;;;;;;;;5010583;28;20486;-56
2023/06/20 08:25:49;;;;;;;8.63;5.40;;;;;;;;;;5000156;28;20030;-56
2023/06/20 08:28:15;;;;;;;8.35;5.18;;;;;;;;;;4993916;28;20046;-57
2023/06/20 08:30:41;;;;;;;7.88;4.95;;;;;;;;;;4998503;28;20065;-53
2023/06/20 08:33:06;;;;;;;7.55;4.93;;;;;;;;;;5007945;28;20549;-57
2023/06/20 08:35:32;;;;;;;7.97;5.47;;;;;;;;;;5007424;28;20060;-56
2023/06/20 08:37:57;;;;;;;8.52;4.90;;;;;;;;;;5031839;28;20080;-57
2023/06/20 08:40:23;;;;;;;7.38;4.80;;;;;;;;;;5031623;28;20077;-56
2023/06/20 08:42:48;;;;;;;7.93;5.55;;;;;;;;;;5011571;28;20038;-54
2023/06/20 08:45:16;;;;;;;9.10;5.32;;;;;;;;;;4992909;28;20356;-53
2023/06/20 08:47:41;;;;;;;9.38;5.68;;;;;;;;;;5011454;28;20056;-52
2023/06/20 08:50:07;;;;;;;6.55;4.82;;;;;;;;;;5013121;28;20429;-57
2023/06/20 08:52:46;;;;;;;8.10;5.60;;;;;;;;;;5012967;28;20034;-58
2023/06/20 08:55:13;;;;;;;7.32;5.60;;;;;;;;;;5009669;28;20091;-54
2023/06/20 08:57:39;;;;;;;9.00;4.60;;;;;;;;;;5012520;28;20489;-53
2023/06/20 09:00:06;;;;;;;6.80;4.53;;;;;;;;;;5007973;28;20026;-56
2023/06/20 09:02:32;;;;;;;6.57;4.53;;;;;;;;;;5009608;28;20033;-56
2023/06/20 09:05:04;;;;;;;7.93;4.80;;;;;;;;;;5012766;28;20359;-56
2023/06/20 09:07:37;;;;;;;7.57;4.70;;;;;;;;;;5012455;28;20033;-56
2023/06/20 09:10:04;;;;;;;6.88;4.38;;;;;;;;;;5010510;28;20581;-55
2023/06/20 09:12:43;;;;;;;6.35;4.45;;;;;;;;;;5012209;28;20399;-54
2023/06/20 09:15:14;;;;;;;5.30;4.40;;;;;;;;;;5010852;28;20040;-57
2023/06/20 09:17:41;;;;;;;6.78;4.20;;;;;;;;;;5004086;28;20031;-55
2023/06/20 09:20:10;;;;;;;7.93;4.43;;;;;;;;;;5027591;28;20462;-58
2023/06/20 09:22:38;;;;;;;7.60;4.47;;;;;;;;;;5014049;28;20030;-55
2023/06/20 09:25:04;;;;;;;5.93;3.90;;;;;;;;;;4993506;28;20038;-52
2023/06/20 09:27:37;;;;;;;6.78;3.92;;;;;;;;;;5007962;28;20113;-54
2023/06/20 09:30:03;;;;;;;8.45;4.20;;;;;;;;;;5012486;28;20030;-54
2023/06/20 09:32:36;;;;;;;5.15;4.13;;;;;;;;;;5010507;28;20105;-56
2023/06/20 09:35:03;;;;;;;5.55;4.10;;;;;;;;;;5001271;28;20048;-55
2023/06/20 09:37:55;;;;;;;6.25;4.05;;;;;;;;;;5004158;28;20051;-52
2023/06/20 09:40:21;;;;;;;6.55;4.10;;;;;;;;;;5004501;28;20046;-57
2023/06/20 09:42:47;;;;;;;6.00;3.85;;;;;;;;;;5016440;28;20041;-59
2023/06/20 09:45:15;;;;;;;6.40;3.90;;;;;;;;;;5011377;28;20157;-57
2023/06/20 09:47:41;;;;;;;5.97;3.95;;;;;;;;;;5009404;28;20112;-56
2023/06/20 09:50:09;;;;;;;6.60;3.90;;;;;;;;;;5012715;28;20079;-53
2023/06/20 09:53:16;;;;;;;6.18;4.07;;;;;;;;;;5004096;28;20031;-59
2023/06/20 09:55:43;;;;;;;4.90;3.92;;;;;;;;;;5005611;28;20072;-54
2023/06/20 09:58:10;;;;;;;6.38;4.03;;;;;;;;;;5012069;28;20062;-55
2023/06/20 10:00:37;;;;;;;4.78;3.90;;;;;;;;;;5011421;28;20092;-56
2023/06/20 10:03:07;;;;;;;5.68;3.60;;;;;;;;;;5011529;28;20029;-54
2023/06/20 10:05:33;;;;;;;4.18;3.40;;;;;;;;;;5009596;28;20175;-56
2023/06/20 10:07:59;;;;;;;5.22;3.40;;;;;;;;;;5006694;28;20463;-53
2023/06/20 10:10:25;;;;;;;5.43;3.40;;;;;;;;;;5004345;28;20111;-57
2023/06/20 10:12:50;;;;;;;5.07;3.70;;;;;;;;;;5014479;28;20081;-57
2023/06/20 10:15:16;;;;;;;4.55;3.65;;;;;;;;;;5011144;28;20042;-56
2023/06/20 10:17:46;;;;;;;4.43;3.50;;;;;;;;;;5009430;28;20390;-52
2023/06/20 10:20:25;;;;;;;5.32;3.83;;;;;;;;;;5004709;28;21027;-58
2023/06/20 10:22:50;;;;;;;6.03;3.40;;;;;;;;;;5018094;28;20042;-57
2023/06/20 10:25:18;;;;;;;5.97;3.50;;;;;;;;;;4991494;28;20041;-56
2023/06/20 10:27:58;;;;;;;4.75;3.45;;;;;;;;;;5006234;28;20058;-56
2023/06/20 10:30:42;;;;;;;;;;;;;;;;;;5003115;28;20537;-53
2023/06/20 10:33:08;;;;;;;6.40;3.33;;;;;;;;;;5011764;28;19919;-54
2023/06/20 10:35:34;;;;;;;4.22;3.42;;;;;;;;;;4992264;28;20089;-56
2023/06/20 10:38:08;;;;;;;4.38;3.50;;;;;;;;;;5007579;28;20033;-54
2023/06/20 10:40:35;;;;;;;4.80;3.40;;;;;;;;;;5009755;28;20668;-58
2023/06/20 10:43:05;;;;;;;6.72;3.50;;;;;;;;;;4999876;28;20440;-58
2023/06/20 10:45:31;;;;;;;4.43;3.47;;;;;;;;;;4997483;28;20554;-58
2023/06/20 10:47:57;;;;;;;4.32;3.25;;;;;;;;;;5010293;28;20471;-57
2023/06/20 10:50:23;;;;;;;5.07;3.35;;;;;;;;;;5010244;28;20112;-59
2023/06/20 10:52:49;;;;;;;3.42;2.83;;;;;;;;;;5009713;28;20034;-59
2023/06/20 10:55:29;;;;;;;4.72;3.40;;;;;;;;;;5009594;28;20030;-59
2023/06/20 10:57:56;;;;;;;4.30;3.42;;;;;;;;;;5006683;28;20467;-59
2023/06/20 11:00:22;;;;;;;5.00;3.17;;;;;;;;;;4991150;28;20034;-59
2023/06/20 11:02:53;;;;;;;4.45;3.60;;;;;;;;;;5003705;28;20128;-57
2023/06/20 11:05:24;;;;;;;3.83;3.30;;;;;;;;;;5000284;28;20085;-58
2023/06/20 11:07:51;;;;;;;5.82;4.07;;;;;;;;;;5005419;28;20045;-57
2023/06/20 11:10:17;;;;;;;4.07;3.60;;;;;;;;;;5010727;28;20034;-59
2023/06/20 11:12:43;;;;;;;3.65;3.20;;;;;;;;;;5017159;28;20025;-58
2023/06/20 11:15:24;;;;;;;6.50;3.42;;;;;;;;;;5012333;28;20060;-59
2023/06/20 11:17:50;;;;;;;5.10;3.50;;;;;;;;;;5009981;28;20462;-58
2023/06/20 11:20:19;;;;;;;4.80;3.58;;;;;;;;;;5009837;28;20498;-58
2023/06/20 11:22:46;;;;;;;4.07;3.38;;;;;;;;;;5002744;28;20033;-58
2023/06/20 11:25:11;;;;;;;4.50;3.78;;;;;;;;;;5009511;28;20042;-56
2023/06/20 11:27:38;;;;;;;4.28;3.38;;;;;;;;;;5008727;28;20053;-56
2023/06/20 11:30:05;;;;;;;4.13;3.45;;;;;;;;;;5010048;28;20431;-57
2023/06/20 11:32:30;;;;;;;4.22;3.42;;;;;;;;;;5008009;28;20065;-57
2023/06/20 11:35:00;;;;;;;4.95;3.20;;;;;;;;;;5013479;28;20057;-56
2023/06/20 11:37:26;;;;;;;3.67;3.25;;;;;;;;;;5010545;28;20475;-55
2023/06/20 11:39:55;;;;;;;4.85;3.13;;;;;;;;;;5011159;28;20034;-56
2023/06/20 11:42:21;;;;;;;3.25;2.90;;;;;;;;;;5001143;28;20034;-57
2023/06/20 11:44:46;;;;;;;3.72;3.13;;;;;;;;;;5014237;28;20471;-58
2023/06/20 11:47:12;;;;;;;3.90;2.97;;;;;;;;;;5021986;28;20467;-58
2023/06/20 11:49:40;;;;;;;3.42;2.80;;;;;;;;;;5013204;28;20030;-59
2023/06/20 11:52:07;;;;;;;5.18;2.90;;;;;;;;;;4999425;28;20486;-58
2023/06/20 11:54:49;;;;;;;5.75;3.20;;;;;;;;;;5015647;28;20153;-58
2023/06/20 11:57:28;;;;;;;4.72;3.10;;;;;;;;;;5028615;28;20573;-59
2023/06/20 11:59:59;;;;;;;4.35;3.00;;;;;;;;;;5014318;28;20056;-58
2023/06/20 12:02:26;;;;;;;4.43;2.97;;;;;;;;;;5017732;28;20026;-58
2023/06/20 12:04:56;;;;;;;4.47;3.05;;;;;;;;;;5013832;28;20541;-55
2023/06/20 12:07:22;;;;;;;3.20;2.80;;;;;;;;;;5012741;28;20038;-58
2023/06/20 12:09:48;;;;;;;5.68;3.08;;;;;;;;;;5014255;28;20036;-57
2023/06/20 12:12:13;;;;;;;4.55;3.28;;;;;;;;;;5014878;28;20387;-58
2023/06/20 12:14:39;;;;;;;6.47;3.40;;;;;;;;;;5013255;28;20029;-58
2023/06/20 12:17:04;;;;;;;3.90;3.20;;;;;;;;;;5013962;28;20733;-57
2023/06/20 12:19:31;;;;;;;4.47;3.15;;;;;;;;;;5016419;28;21025;-59
2023/06/20 12:21:56;;;;;;;4.07;3.17;;;;;;;;;;5013385;28;20044;-58
2023/06/20 12:24:27;;;;;;;3.92;3.15;;;;;;;;;;5006273;28;20031;-59
2023/06/20 12:26:56;;;;;;;4.60;3.08;;;;;;;;;;4994744;28;20042;-55
2023/06/20 12:29:21;;;;;;;4.95;3.33;;;;;;;;;;5016611;28;20042;-59
2023/06/20 12:31:47;;;;;;;3.97;2.90;;;;;;;;;;5023305;28;20087;-57
2023/06/20 12:34:12;;;;;;;4.78;3.17;;;;;;;;;;5014017;28;20040;-58
2023/06/20 12:36:37;;;;;;;4.88;3.00;;;;;;;;;;5017154;28;20295;-60
2023/06/20 12:39:04;;;;;;;4.00;3.05;;;;;;;;;;5014288;28;20467;-58
2023/06/20 12:41:33;;;;;;;4.68;3.10;;;;;;;;;;4997812;28;20053;-53
2023/06/20 12:43:59;;;;;;;6.00;3.22;;;;;;;;;;5009260;28;20490;-56
2023/06/20 12:46:24;;;;;;;4.55;2.95;;;;;;;;;;5008167;28;20053;-58
2023/06/20 12:48:50;;;;;;;3.75;3.00;;;;;;;;;;5013065;28;20073;-55
2023/06/20 12:51:15;;;;;;;5.32;3.10;;;;;;;;;;5013292;28;20026;-58
2023/06/20 12:53:41;;;;;;;3.97;3.00;;;;;;;;;;5011198;28;20034;-58
2023/06/20 12:56:06;;;;;;;5.22;3.17;;;;;;;;;;4999881;28;20138;-57
2023/06/20 12:58:33;;;;;;;4.53;3.20;;;;;;;;;;5002452;28;20386;-57
2023/06/20 13:00:59;;;;;;;3.90;3.03;;;;;;;;;;5012939;28;20034;-58
2023/06/20 13:03:25;;;;;;;5.47;3.40;;;;;;;;;;5011940;28;20041;-55
2023/06/20 13:05:50;;;;;;;5.47;3.53;;;;;;;;;;5024376;28;20033;-58
2023/06/20 13:08:15;;;;;;;3.35;3.00;;;;;;;;;;5014592;28;20049;-57
2023/06/20 13:10:41;;;;;;;3.85;3.22;;;;;;;;;;5007737;28;20030;-58
2023/06/20 13:13:07;;;;;;;5.03;3.00;;;;;;;;;;4996124;28;20367;-58
2023/06/20 13:15:32;;;;;;;4.35;2.90;;;;;;;;;;5006650;28;20475;-59
2023/06/20 13:18:01;;;;;;;5.25;3.20;;;;;;;;;;5013151;28;20064;-58
2023/06/20 13:20:27;;;;;;;4.15;3.08;;;;;;;;;;5021765;28;20470;-58
2023/06/20 13:22:53;;;;;;;4.47;2.83;;;;;;;;;;5012721;28;20041;-59
2023/06/20 13:25:19;;;;;;;4.35;2.95;;;;;;;;;;5012597;28;20030;-59
2023/06/20 13:27:46;;;;;;;3.70;3.20;;;;;;;;;;5011441;28;20038;-60
2023/06/20 13:30:15;;;;;;;6.15;3.58;;;;;;;;;;5010520;28;20056;-60
2023/06/20 13:32:41;;;;;;;5.53;3.27;;;;;;;;;;5003674;28;20022;-60
2023/06/20 13:35:07;;;;;;;4.22;3.03;;;;;;;;;;5012181;28;20033;-60
2023/06/20 13:37:32;;;;;;;4.90;3.40;;;;;;;;;;5010908;28;20488;-60
2023/06/20 13:39:58;;;;;;;4.00;3.15;;;;;;;;;;5012481;28;20033;-60
2023/06/20 13:42:23;;;;;;;4.93;3.20;;;;;;;;;;5010538;28;20117;-60
2023/06/20 13:44:48;;;;;;;3.78;3.22;;;;;;;;;;5007512;28;20042;-60
2023/06/20 13:47:14;;;;;;;3.40;2.97;;;;;;;;;;5007442;28;20038;-60
2023/06/20 13:49:40;;;;;;;4.85;3.30;;;;;;;;;;5006801;28;20097;-59
2023/06/20 13:52:05;;;;;;;4.57;3.55;;;;;;;;;;5012782;28;20033;-59
2023/06/20 13:54:31;;;;;;;5.15;3.40;;;;;;;;;;5024184;28;20033;-58
2023/06/20 13:56:56;;;;;;;3.58;3.10;;;;;;;;;;5010270;28;20064;-59
2023/06/20 13:59:23;;;;;;;4.80;3.38;;;;;;;;;;5024067;28;20030;-60
2023/06/20 14:01:48;;;;;;;5.18;3.72;;;;;;;;;;5030967;28;20112;-60
2023/06/20 14:04:14;;;;;;;5.00;3.58;;;;;;;;;;5016635;28;20148;-60
2023/06/20 14:06:40;;;;;;;7.03;3.70;;;;;;;;;;5012308;28;20058;-60
2023/06/20 14:09:06;;;;;;;5.78;3.40;;;;;;;;;;5005082;28;20042;-59
2023/06/20 14:11:32;;;;;;;7.55;3.50;;;;;;;;;;5021868;28;20124;-60
2023/06/20 14:13:57;;;;;;;5.63;3.50;;;;;;;;;;5019690;28;20181;-60
2023/06/20 14:16:23;;;;;;;4.68;3.38;;;;;;;;;;4998867;28;20038;-59
2023/06/20 14:18:49;;;;;;;5.15;3.30;;;;;;;;;;5006254;28;20088;-58
2023/06/20 14:21:15;;;;;;;4.93;3.58;;;;;;;;;;5011753;28;20113;-60
2023/06/20 14:23:40;;;;;;;4.50;3.40;;;;;;;;;;5010413;28;20034;-60
2023/06/20 14:26:06;;;;;;;3.90;3.50;;;;;;;;;;5014488;28;20038;-60
2023/06/20 14:28:31;;;;;;;5.97;4.13;;;;;;;;;;5015095;28;20042;-60
2023/06/20 14:30:57;;;;;;;5.95;3.65;;;;;;;;;;5007618;28;20030;-60
2023/06/20 14:33:24;;;;;;;5.35;3.90;;;;;;;;;;4998430;28;20472;-56
2023/06/20 14:35:50;;;;;;;5.70;3.63;;;;;;;;;;5010719;28;20026;-58